sensor_id;sensor_type;location;lat;lon;timestamp;P1;durP1;ratioP1;P2;durP2;ratioP2
6463;SDS011;3265;42.694;23.282;2022-10-16T00:00:08;19.07;;;11.63;;
6463;SDS011;3265;42.694;23.282;2022-10-16T00:02:36;30.30;;;15.73;;
6463;SDS011;3265;42.694;23.282;2022-10-16T00:05:04;29.77;;;15.33;;
6463;SDS011;3265;42.694;23.282;2022-10-16T00:07:31;35.97;;;17.00;;
6463;SDS011;3265;42.694;23.282;2022-10-16T00:09:58;32.77;;;16.30;;
6463;SDS011;3265;42.694;23.282;2022-10-16T00:12:25;25.60;;;14.80;;
6463;SDS011;3265;42.694;23.282;2022-10-16T00:14:51;24.80;;;13.87;;
6463;SDS011;3265;42.694;23.282;2022-10-16T00:17:18;32.30;;;18.23;;
6463;SDS011;3265;42.694;23.282;2022-10-16T00:19:47;43.97;;;20.53;;
6463;SDS011;3265;42.694;23.282;2022-10-16T00:22:14;22.17;;;12.73;;
6463;SDS011;3265;42.694;23.282;2022-10-16T00:24:40;21.27;;;11.90;;
6463;SDS011;3265;42.694;23.282;2022-10-16T00:27:07;19.63;;;11.77;;
6463;SDS011;3265;42.694;23.282;2022-10-16T00:29:34;17.90;;;11.83;;
6463;SDS011;3265;42.694;23.282;2022-10-16T00:32:01;26.77;;;14.00;;
6463;SDS011;3265;42.694;23.282;2022-10-16T00:34:28;31.37;;;16.67;;
6463;SDS011;3265;42.694;23.282;2022-10-16T00:36:56;27.17;;;13.77;;
6463;SDS011;3265;42.694;23.282;2022-10-16T00:39:23;20.53;;;11.67;;
6463;SDS011;3265;42.694;23.282;2022-10-16T00:41:50;27.93;;;13.90;;
6463;SDS011;3265;42.694;23.282;2022-10-16T00:47:11;25.00;;;13.67;;
6463;SDS011;3265;42.694;23.282;2022-10-16T00:49:45;25.73;;;14.80;;
6463;SDS011;3265;42.694;23.282;2022-10-16T00:52:15;27.03;;;10.77;;
6463;SDS011;3265;42.694;23.282;2022-10-16T00:54:43;20.67;;;10.80;;
6463;SDS011;3265;42.694;23.282;2022-10-16T00:57:12;27.80;;;10.57;;
6463;SDS011;3265;42.694;23.282;2022-10-16T00:59:40;19.80;;;10.97;;
6463;SDS011;3265;42.694;23.282;2022-10-16T01:02:09;22.17;;;13.00;;
6463;SDS011;3265;42.694;23.282;2022-10-16T01:04:41;23.70;;;12.83;;
6463;SDS011;3265;42.694;23.282;2022-10-16T01:07:12;24.00;;;13.17;;
6463;SDS011;3265;42.694;23.282;2022-10-16T01:09:51;21.53;;;11.37;;
6463;SDS011;3265;42.694;23.282;2022-10-16T01:12:29;18.93;;;11.00;;
6463;SDS011;3265;42.694;23.282;2022-10-16T01:15:04;16.77;;;10.03;;
6463;SDS011;3265;42.694;23.282;2022-10-16T01:17:38;17.63;;;10.80;;
6463;SDS011;3265;42.694;23.282;2022-10-16T01:20:10;15.27;;;10.10;;
6463;SDS011;3265;42.694;23.282;2022-10-16T01:22:48;17.13;;;9.90;;
6463;SDS011;3265;42.694;23.282;2022-10-16T01:25:28;17.70;;;9.60;;
6463;SDS011;3265;42.694;23.282;2022-10-16T01:28:05;17.70;;;9.17;;
6463;SDS011;3265;42.694;23.282;2022-10-16T01:30:35;15.00;;;9.30;;
6463;SDS011;3265;42.694;23.282;2022-10-16T01:33:05;17.37;;;9.63;;
6463;SDS011;3265;42.694;23.282;2022-10-16T01:35:41;13.97;;;9.47;;
6463;SDS011;3265;42.694;23.282;2022-10-16T01:38:12;17.37;;;9.93;;
6463;SDS011;3265;42.694;23.282;2022-10-16T01:40:44;18.53;;;10.00;;
6463;SDS011;3265;42.694;23.282;2022-10-16T01:43:17;15.33;;;10.27;;
6463;SDS011;3265;42.694;23.282;2022-10-16T01:45:47;18.60;;;10.50;;
6463;SDS011;3265;42.694;23.282;2022-10-16T01:48:17;15.77;;;10.23;;
6463;SDS011;3265;42.694;23.282;2022-10-16T01:50:48;18.50;;;10.70;;
6463;SDS011;3265;42.694;23.282;2022-10-16T01:53:20;18.97;;;11.77;;
6463;SDS011;3265;42.694;23.282;2022-10-16T01:55:49;19.87;;;11.40;;
6463;SDS011;3265;42.694;23.282;2022-10-16T01:58:20;21.27;;;10.70;;
6463;SDS011;3265;42.694;23.282;2022-10-16T02:00:48;25.57;;;13.97;;
6463;SDS011;3265;42.694;23.282;2022-10-16T02:03:16;38.87;;;19.83;;
6463;SDS011;3265;42.694;23.282;2022-10-16T02:05:46;40.97;;;18.73;;
6463;SDS011;3265;42.694;23.282;2022-10-16T02:08:16;31.77;;;17.73;;
6463;SDS011;3265;42.694;23.282;2022-10-16T02:10:43;36.90;;;19.10;;
6463;SDS011;3265;42.694;23.282;2022-10-16T02:13:11;42.97;;;19.10;;
6463;SDS011;3265;42.694;23.282;2022-10-16T02:15:43;38.93;;;19.07;;
6463;SDS011;3265;42.694;23.282;2022-10-16T02:18:10;39.37;;;19.27;;
6463;SDS011;3265;42.694;23.282;2022-10-16T02:20:40;34.70;;;18.23;;
6463;SDS011;3265;42.694;23.282;2022-10-16T02:23:17;39.97;;;17.97;;
6463;SDS011;3265;42.694;23.282;2022-10-16T02:25:49;40.83;;;19.60;;
6463;SDS011;3265;42.694;23.282;2022-10-16T02:28:19;37.03;;;19.50;;
6463;SDS011;3265;42.694;23.282;2022-10-16T02:30:52;33.90;;;18.83;;
6463;SDS011;3265;42.694;23.282;2022-10-16T02:33:24;48.33;;;21.93;;
6463;SDS011;3265;42.694;23.282;2022-10-16T02:35:53;47.00;;;25.70;;
6463;SDS011;3265;42.694;23.282;2022-10-16T02:38:21;49.50;;;24.10;;
6463;SDS011;3265;42.694;23.282;2022-10-16T02:40:49;42.10;;;22.10;;
6463;SDS011;3265;42.694;23.282;2022-10-16T02:43:16;41.43;;;22.93;;
6463;SDS011;3265;42.694;23.282;2022-10-16T02:45:43;38.33;;;20.97;;
6463;SDS011;3265;42.694;23.282;2022-10-16T02:48:12;42.40;;;19.97;;
6463;SDS011;3265;42.694;23.282;2022-10-16T02:50:40;38.47;;;20.90;;
6463;SDS011;3265;42.694;23.282;2022-10-16T02:53:06;39.57;;;22.33;;
6463;SDS011;3265;42.694;23.282;2022-10-16T02:55:33;42.57;;;22.50;;
6463;SDS011;3265;42.694;23.282;2022-10-16T02:58:00;42.97;;;22.77;;
6463;SDS011;3265;42.694;23.282;2022-10-16T03:00:27;44.77;;;23.90;;
6463;SDS011;3265;42.694;23.282;2022-10-16T03:02:54;44.17;;;24.60;;
6463;SDS011;3265;42.694;23.282;2022-10-16T03:05:22;54.43;;;26.60;;
6463;SDS011;3265;42.694;23.282;2022-10-16T03:07:49;42.37;;;24.60;;
6463;SDS011;3265;42.694;23.282;2022-10-16T03:10:17;40.27;;;22.90;;
6463;SDS011;3265;42.694;23.282;2022-10-16T03:12:44;42.23;;;23.67;;
6463;SDS011;3265;42.694;23.282;2022-10-16T03:15:11;39.23;;;24.37;;
6463;SDS011;3265;42.694;23.282;2022-10-16T03:17:38;45.00;;;25.53;;
6463;SDS011;3265;42.694;23.282;2022-10-16T03:20:05;52.73;;;27.53;;
6463;SDS011;3265;42.694;23.282;2022-10-16T03:22:34;49.40;;;26.40;;
6463;SDS011;3265;42.694;23.282;2022-10-16T03:25:01;52.37;;;28.30;;
6463;SDS011;3265;42.694;23.282;2022-10-16T03:27:28;51.37;;;27.50;;
6463;SDS011;3265;42.694;23.282;2022-10-16T03:29:55;48.97;;;26.97;;
6463;SDS011;3265;42.694;23.282;2022-10-16T03:32:21;41.93;;;25.17;;
6463;SDS011;3265;42.694;23.282;2022-10-16T03:34:50;46.30;;;25.07;;
6463;SDS011;3265;42.694;23.282;2022-10-16T03:37:18;47.93;;;26.00;;
6463;SDS011;3265;42.694;23.282;2022-10-16T03:39:46;48.63;;;26.63;;
6463;SDS011;3265;42.694;23.282;2022-10-16T03:42:13;47.30;;;24.80;;
6463;SDS011;3265;42.694;23.282;2022-10-16T03:44:39;35.87;;;21.93;;
6463;SDS011;3265;42.694;23.282;2022-10-16T03:47:06;39.27;;;23.03;;
6463;SDS011;3265;42.694;23.282;2022-10-16T03:49:33;43.50;;;24.60;;
6463;SDS011;3265;42.694;23.282;2022-10-16T03:52:00;40.20;;;24.07;;
6463;SDS011;3265;42.694;23.282;2022-10-16T03:54:26;40.87;;;22.83;;
6463;SDS011;3265;42.694;23.282;2022-10-16T03:56:55;34.67;;;20.63;;
6463;SDS011;3265;42.694;23.282;2022-10-16T03:59:21;37.67;;;19.73;;
6463;SDS011;3265;42.694;23.282;2022-10-16T04:01:48;29.83;;;17.30;;
6463;SDS011;3265;42.694;23.282;2022-10-16T04:04:15;26.23;;;16.03;;
6463;SDS011;3265;42.694;23.282;2022-10-16T04:06:42;27.47;;;16.53;;
6463;SDS011;3265;42.694;23.282;2022-10-16T04:09:09;30.30;;;16.87;;
6463;SDS011;3265;42.694;23.282;2022-10-16T04:11:35;29.50;;;18.70;;
6463;SDS011;3265;42.694;23.282;2022-10-16T04:14:03;29.33;;;17.30;;
6463;SDS011;3265;42.694;23.282;2022-10-16T04:16:30;28.07;;;18.40;;
6463;SDS011;3265;42.694;23.282;2022-10-16T04:18:57;31.00;;;18.43;;
6463;SDS011;3265;42.694;23.282;2022-10-16T04:21:24;33.40;;;19.43;;
6463;SDS011;3265;42.694;23.282;2022-10-16T04:23:51;34.87;;;20.37;;
6463;SDS011;3265;42.694;23.282;2022-10-16T04:26:18;35.90;;;20.70;;
6463;SDS011;3265;42.694;23.282;2022-10-16T04:28:45;42.03;;;24.77;;
6463;SDS011;3265;42.694;23.282;2022-10-16T04:31:13;47.67;;;26.50;;
6463;SDS011;3265;42.694;23.282;2022-10-16T04:33:41;47.70;;;28.77;;
6463;SDS011;3265;42.694;23.282;2022-10-16T04:36:09;52.93;;;30.70;;
6463;SDS011;3265;42.694;23.282;2022-10-16T04:38:35;50.30;;;30.30;;
6463;SDS011;3265;42.694;23.282;2022-10-16T04:41:04;52.00;;;31.07;;
6463;SDS011;3265;42.694;23.282;2022-10-16T04:43:31;60.83;;;35.63;;
6463;SDS011;3265;42.694;23.282;2022-10-16T04:45:58;70.17;;;38.63;;
6463;SDS011;3265;42.694;23.282;2022-10-16T04:48:27;67.83;;;39.07;;
6463;SDS011;3265;42.694;23.282;2022-10-16T04:50:53;71.73;;;39.43;;
6463;SDS011;3265;42.694;23.282;2022-10-16T04:53:20;68.37;;;40.23;;
6463;SDS011;3265;42.694;23.282;2022-10-16T04:55:47;67.00;;;41.23;;
6463;SDS011;3265;42.694;23.282;2022-10-16T04:58:14;75.87;;;44.27;;
6463;SDS011;3265;42.694;23.282;2022-10-16T05:00:41;93.90;;;49.90;;
6463;SDS011;3265;42.694;23.282;2022-10-16T05:03:08;87.03;;;50.00;;
6463;SDS011;3265;42.694;23.282;2022-10-16T05:05:36;91.40;;;48.90;;
6463;SDS011;3265;42.694;23.282;2022-10-16T05:08:03;78.93;;;46.30;;
6463;SDS011;3265;42.694;23.282;2022-10-16T05:10:30;80.67;;;44.90;;
6463;SDS011;3265;42.694;23.282;2022-10-16T05:12:56;79.73;;;44.43;;
6463;SDS011;3265;42.694;23.282;2022-10-16T05:15:23;86.60;;;45.97;;
6463;SDS011;3265;42.694;23.282;2022-10-16T05:17:52;87.13;;;46.93;;
6463;SDS011;3265;42.694;23.282;2022-10-16T05:20:19;71.37;;;43.10;;
6463;SDS011;3265;42.694;23.282;2022-10-16T05:22:48;56.97;;;31.60;;
6463;SDS011;3265;42.694;23.282;2022-10-16T05:25:15;71.23;;;37.83;;
6463;SDS011;3265;42.694;23.282;2022-10-16T05:27:41;58.77;;;32.83;;
6463;SDS011;3265;42.694;23.282;2022-10-16T05:30:09;43.97;;;21.57;;
6463;SDS011;3265;42.694;23.282;2022-10-16T05:32:36;31.40;;;18.53;;
6463;SDS011;3265;42.694;23.282;2022-10-16T05:35:03;32.47;;;19.00;;
6463;SDS011;3265;42.694;23.282;2022-10-16T05:37:30;39.00;;;19.97;;
6463;SDS011;3265;42.694;23.282;2022-10-16T05:39:58;34.63;;;19.77;;
6463;SDS011;3265;42.694;23.282;2022-10-16T05:42:25;44.40;;;26.97;;
6463;SDS011;3265;42.694;23.282;2022-10-16T05:44:52;46.90;;;27.20;;
6463;SDS011;3265;42.694;23.282;2022-10-16T05:47:19;43.80;;;25.10;;
6463;SDS011;3265;42.694;23.282;2022-10-16T05:49:47;39.97;;;23.37;;
6463;SDS011;3265;42.694;23.282;2022-10-16T05:52:13;36.93;;;21.90;;
6463;SDS011;3265;42.694;23.282;2022-10-16T05:54:40;37.53;;;21.80;;
6463;SDS011;3265;42.694;23.282;2022-10-16T05:57:11;36.77;;;21.20;;
6463;SDS011;3265;42.694;23.282;2022-10-16T05:59:38;36.63;;;21.07;;
6463;SDS011;3265;42.694;23.282;2022-10-16T06:02:05;35.93;;;19.77;;
6463;SDS011;3265;42.694;23.282;2022-10-16T06:04:31;35.53;;;20.50;;
6463;SDS011;3265;42.694;23.282;2022-10-16T06:06:58;34.53;;;20.67;;
6463;SDS011;3265;42.694;23.282;2022-10-16T06:09:26;34.93;;;21.77;;
6463;SDS011;3265;42.694;23.282;2022-10-16T06:11:53;35.07;;;21.60;;
6463;SDS011;3265;42.694;23.282;2022-10-16T06:14:21;37.33;;;23.70;;
6463;SDS011;3265;42.694;23.282;2022-10-16T06:16:48;41.33;;;23.93;;
6463;SDS011;3265;42.694;23.282;2022-10-16T06:19:15;42.47;;;22.57;;
6463;SDS011;3265;42.694;23.282;2022-10-16T06:21:42;37.77;;;21.57;;
6463;SDS011;3265;42.694;23.282;2022-10-16T06:24:09;36.60;;;22.40;;
6463;SDS011;3265;42.694;23.282;2022-10-16T06:26:36;35.87;;;20.57;;
6463;SDS011;3265;42.694;23.282;2022-10-16T06:29:04;37.93;;;21.73;;
6463;SDS011;3265;42.694;23.282;2022-10-16T06:31:32;34.90;;;21.17;;
6463;SDS011;3265;42.694;23.282;2022-10-16T06:33:59;38.97;;;20.93;;
6463;SDS011;3265;42.694;23.282;2022-10-16T06:36:27;37.87;;;20.67;;
6463;SDS011;3265;42.694;23.282;2022-10-16T06:38:55;43.30;;;22.33;;
6463;SDS011;3265;42.694;23.282;2022-10-16T06:41:22;44.33;;;21.43;;
6463;SDS011;3265;42.694;23.282;2022-10-16T06:43:49;29.27;;;16.60;;
6463;SDS011;3265;42.694;23.282;2022-10-16T06:46:17;25.40;;;15.47;;
6463;SDS011;3265;42.694;23.282;2022-10-16T06:48:47;21.90;;;14.20;;
6463;SDS011;3265;42.694;23.282;2022-10-16T06:51:14;33.93;;;15.47;;
6463;SDS011;3265;42.694;23.282;2022-10-16T06:53:43;24.60;;;14.53;;
6463;SDS011;3265;42.694;23.282;2022-10-16T06:56:13;24.20;;;14.47;;
6463;SDS011;3265;42.694;23.282;2022-10-16T06:58:41;30.63;;;14.50;;
6463;SDS011;3265;42.694;23.282;2022-10-16T07:01:09;25.53;;;14.80;;
6463;SDS011;3265;42.694;23.282;2022-10-16T07:03:37;21.03;;;13.67;;
6463;SDS011;3265;42.694;23.282;2022-10-16T07:06:06;29.67;;;13.67;;
6463;SDS011;3265;42.694;23.282;2022-10-16T07:08:35;22.40;;;14.00;;
6463;SDS011;3265;42.694;23.282;2022-10-16T07:11:04;21.33;;;13.47;;
6463;SDS011;3265;42.694;23.282;2022-10-16T07:13:32;23.47;;;13.50;;
6463;SDS011;3265;42.694;23.282;2022-10-16T07:16:03;25.30;;;13.60;;
6463;SDS011;3265;42.694;23.282;2022-10-16T07:18:30;20.77;;;14.30;;
6463;SDS011;3265;42.694;23.282;2022-10-16T07:21:02;24.77;;;13.17;;
6463;SDS011;3265;42.694;23.282;2022-10-16T07:23:31;22.57;;;13.10;;
6463;SDS011;3265;42.694;23.282;2022-10-16T07:25:58;22.30;;;13.40;;
6463;SDS011;3265;42.694;23.282;2022-10-16T07:28:24;22.07;;;13.40;;
6463;SDS011;3265;42.694;23.282;2022-10-16T07:30:51;21.83;;;13.33;;
6463;SDS011;3265;42.694;23.282;2022-10-16T07:33:18;22.50;;;13.40;;
6463;SDS011;3265;42.694;23.282;2022-10-16T07:35:48;22.80;;;13.40;;
6463;SDS011;3265;42.694;23.282;2022-10-16T07:38:16;19.43;;;12.80;;
6463;SDS011;3265;42.694;23.282;2022-10-16T07:40:44;23.63;;;15.07;;
6463;SDS011;3265;42.694;23.282;2022-10-16T07:43:11;23.17;;;14.43;;
6463;SDS011;3265;42.694;23.282;2022-10-16T07:45:46;22.00;;;14.73;;
6463;SDS011;3265;42.694;23.282;2022-10-16T07:48:13;28.00;;;14.67;;
6463;SDS011;3265;42.694;23.282;2022-10-16T07:50:40;24.27;;;14.70;;
6463;SDS011;3265;42.694;23.282;2022-10-16T07:53:07;22.33;;;14.93;;
6463;SDS011;3265;42.694;23.282;2022-10-16T07:55:34;25.63;;;14.53;;
6463;SDS011;3265;42.694;23.282;2022-10-16T07:58:02;25.43;;;14.93;;
6463;SDS011;3265;42.694;23.282;2022-10-16T08:00:29;25.33;;;14.20;;
6463;SDS011;3265;42.694;23.282;2022-10-16T08:02:56;24.27;;;13.97;;
6463;SDS011;3265;42.694;23.282;2022-10-16T08:05:25;24.40;;;14.37;;
6463;SDS011;3265;42.694;23.282;2022-10-16T08:07:52;25.57;;;14.10;;
6463;SDS011;3265;42.694;23.282;2022-10-16T08:10:20;22.20;;;14.63;;
6463;SDS011;3265;42.694;23.282;2022-10-16T08:12:48;21.23;;;14.53;;
6463;SDS011;3265;42.694;23.282;2022-10-16T08:15:17;23.70;;;14.40;;
6463;SDS011;3265;42.694;23.282;2022-10-16T08:17:44;30.33;;;15.03;;
6463;SDS011;3265;42.694;23.282;2022-10-16T08:20:11;26.13;;;14.97;;
6463;SDS011;3265;42.694;23.282;2022-10-16T08:22:38;23.97;;;14.77;;
6463;SDS011;3265;42.694;23.282;2022-10-16T08:25:05;21.20;;;13.87;;
6463;SDS011;3265;42.694;23.282;2022-10-16T08:27:32;22.87;;;13.27;;
6463;SDS011;3265;42.694;23.282;2022-10-16T08:29:59;18.27;;;12.03;;
6463;SDS011;3265;42.694;23.282;2022-10-16T08:32:27;21.07;;;11.57;;
6463;SDS011;3265;42.694;23.282;2022-10-16T08:34:54;16.67;;;11.10;;
6463;SDS011;3265;42.694;23.282;2022-10-16T08:37:21;16.97;;;11.67;;
6463;SDS011;3265;42.694;23.282;2022-10-16T08:39:47;16.20;;;9.00;;
6463;SDS011;3265;42.694;23.282;2022-10-16T08:42:20;14.10;;;8.80;;
6463;SDS011;3265;42.694;23.282;2022-10-16T08:48:03;11.17;;;8.00;;
6463;SDS011;3265;42.694;23.282;2022-10-16T08:50:38;16.03;;;8.43;;
6463;SDS011;3265;42.694;23.282;2022-10-16T08:53:06;12.53;;;8.03;;
6463;SDS011;3265;42.694;23.282;2022-10-16T08:55:41;12.90;;;8.00;;
6463;SDS011;3265;42.694;23.282;2022-10-16T08:58:11;11.20;;;7.03;;
6463;SDS011;3265;42.694;23.282;2022-10-16T09:00:39;9.47;;;7.27;;
6463;SDS011;3265;42.694;23.282;2022-10-16T09:03:13;10.37;;;7.10;;
6463;SDS011;3265;42.694;23.282;2022-10-16T09:05:47;13.63;;;6.97;;
6463;SDS011;3265;42.694;23.282;2022-10-16T09:08:27;8.50;;;6.57;;
6463;SDS011;3265;42.694;23.282;2022-10-16T09:11:02;8.30;;;5.60;;
6463;SDS011;3265;42.694;23.282;2022-10-16T09:13:36;7.53;;;4.87;;
6463;SDS011;3265;42.694;23.282;2022-10-16T09:16:14;10.43;;;5.47;;
6463;SDS011;3265;42.694;23.282;2022-10-16T09:18:48;7.53;;;4.93;;
6463;SDS011;3265;42.694;23.282;2022-10-16T09:21:21;5.93;;;4.90;;
6463;SDS011;3265;42.694;23.282;2022-10-16T09:23:51;6.70;;;4.23;;
6463;SDS011;3265;42.694;23.282;2022-10-16T09:26:20;8.27;;;5.03;;
6463;SDS011;3265;42.694;23.282;2022-10-16T09:28:47;8.35;;;4.82;;
6463;SDS011;3265;42.694;23.282;2022-10-16T09:31:15;5.93;;;4.40;;
6463;SDS011;3265;42.694;23.282;2022-10-16T09:33:45;5.07;;;4.22;;
6463;SDS011;3265;42.694;23.282;2022-10-16T09:36:18;11.98;;;5.38;;
6463;SDS011;3265;42.694;23.282;2022-10-16T09:38:46;9.40;;;4.30;;
6463;SDS011;3265;42.694;23.282;2022-10-16T09:41:15;8.32;;;4.63;;
6463;SDS011;3265;42.694;23.282;2022-10-16T09:43:48;7.45;;;4.70;;
6463;SDS011;3265;42.694;23.282;2022-10-16T09:46:24;7.43;;;4.88;;
6463;SDS011;3265;42.694;23.282;2022-10-16T09:48:55;6.95;;;4.40;;
6463;SDS011;3265;42.694;23.282;2022-10-16T09:51:24;6.00;;;4.30;;
6463;SDS011;3265;42.694;23.282;2022-10-16T09:53:54;6.70;;;4.20;;
6463;SDS011;3265;42.694;23.282;2022-10-16T09:56:23;7.50;;;5.00;;
6463;SDS011;3265;42.694;23.282;2022-10-16T09:58:51;8.88;;;4.68;;
6463;SDS011;3265;42.694;23.282;2022-10-16T10:01:19;8.45;;;4.25;;
6463;SDS011;3265;42.694;23.282;2022-10-16T10:03:47;5.43;;;3.63;;
6463;SDS011;3265;42.694;23.282;2022-10-16T10:06:23;5.40;;;4.30;;
6463;SDS011;3265;42.694;23.282;2022-10-16T10:08:55;8.40;;;4.30;;
6463;SDS011;3265;42.694;23.282;2022-10-16T10:11:38;6.88;;;3.95;;
6463;SDS011;3265;42.694;23.282;2022-10-16T10:14:06;7.65;;;3.90;;
6463;SDS011;3265;42.694;23.282;2022-10-16T10:16:41;7.32;;;4.45;;
6463;SDS011;3265;42.694;23.282;2022-10-16T10:19:10;7.82;;;4.53;;
6463;SDS011;3265;42.694;23.282;2022-10-16T10:21:42;7.95;;;3.88;;
6463;SDS011;3265;42.694;23.282;2022-10-16T10:24:10;7.22;;;4.03;;
6463;SDS011;3265;42.694;23.282;2022-10-16T10:26:37;5.35;;;4.15;;
6463;SDS011;3265;42.694;23.282;2022-10-16T10:29:10;7.82;;;4.00;;
6463;SDS011;3265;42.694;23.282;2022-10-16T10:31:44;7.50;;;3.88;;
6463;SDS011;3265;42.694;23.282;2022-10-16T10:34:23;5.63;;;3.63;;
6463;SDS011;3265;42.694;23.282;2022-10-16T10:37:03;8.30;;;3.40;;
6463;SDS011;3265;42.694;23.282;2022-10-16T10:39:40;7.28;;;4.20;;
6463;SDS011;3265;42.694;23.282;2022-10-16T10:42:18;6.32;;;3.95;;
6463;SDS011;3265;42.694;23.282;2022-10-16T10:44:55;5.15;;;4.18;;
6463;SDS011;3265;42.694;23.282;2022-10-16T10:47:32;6.68;;;4.00;;
6463;SDS011;3265;42.694;23.282;2022-10-16T10:50:12;4.40;;;3.58;;
6463;SDS011;3265;42.694;23.282;2022-10-16T10:52:54;4.40;;;3.42;;
6463;SDS011;3265;42.694;23.282;2022-10-16T10:55:28;6.30;;;4.00;;
6463;SDS011;3265;42.694;23.282;2022-10-16T10:58:11;4.90;;;3.58;;
6463;SDS011;3265;42.694;23.282;2022-10-16T11:00:48;5.57;;;4.22;;
6463;SDS011;3265;42.694;23.282;2022-10-16T11:03:36;6.47;;;4.05;;
6463;SDS011;3265;42.694;23.282;2022-10-16T11:06:14;5.32;;;3.85;;
6463;SDS011;3265;42.694;23.282;2022-10-16T11:08:46;6.70;;;4.18;;
6463;SDS011;3265;42.694;23.282;2022-10-16T11:11:18;5.28;;;3.95;;
6463;SDS011;3265;42.694;23.282;2022-10-16T11:13:51;4.82;;;3.75;;
6463;SDS011;3265;42.694;23.282;2022-10-16T11:16:23;5.30;;;3.60;;
6463;SDS011;3265;42.694;23.282;2022-10-16T11:18:56;4.57;;;3.55;;
6463;SDS011;3265;42.694;23.282;2022-10-16T11:21:26;4.40;;;3.47;;
6463;SDS011;3265;42.694;23.282;2022-10-16T11:23:57;4.05;;;3.50;;
6463;SDS011;3265;42.694;23.282;2022-10-16T11:26:29;4.13;;;3.45;;
6463;SDS011;3265;42.694;23.282;2022-10-16T11:29:00;5.53;;;3.92;;
6463;SDS011;3265;42.694;23.282;2022-10-16T11:31:32;6.95;;;3.60;;
6463;SDS011;3265;42.694;23.282;2022-10-16T11:34:04;6.70;;;3.60;;
6463;SDS011;3265;42.694;23.282;2022-10-16T11:36:41;5.82;;;4.32;;
6463;SDS011;3265;42.694;23.282;2022-10-16T11:39:16;4.53;;;3.60;;
6463;SDS011;3265;42.694;23.282;2022-10-16T11:41:47;4.97;;;3.53;;
6463;SDS011;3265;42.694;23.282;2022-10-16T11:44:20;3.85;;;3.15;;
6463;SDS011;3265;42.694;23.282;2022-10-16T11:47:00;6.50;;;4.20;;
6463;SDS011;3265;42.694;23.282;2022-10-16T11:49:33;5.50;;;3.60;;
6463;SDS011;3265;42.694;23.282;2022-10-16T11:52:01;5.45;;;3.20;;
6463;SDS011;3265;42.694;23.282;2022-10-16T11:54:37;4.50;;;3.47;;
6463;SDS011;3265;42.694;23.282;2022-10-16T11:57:11;8.85;;;4.63;;
6463;SDS011;3265;42.694;23.282;2022-10-16T11:59:43;6.70;;;4.05;;
6463;SDS011;3265;42.694;23.282;2022-10-16T12:02:23;3.83;;;3.35;;
6463;SDS011;3265;42.694;23.282;2022-10-16T12:04:56;5.03;;;3.80;;
6463;SDS011;3265;42.694;23.282;2022-10-16T12:07:34;4.15;;;3.20;;
6463;SDS011;3265;42.694;23.282;2022-10-16T12:10:17;6.28;;;3.78;;
6463;SDS011;3265;42.694;23.282;2022-10-16T12:12:46;6.43;;;4.10;;
6463;SDS011;3265;42.694;23.282;2022-10-16T12:15:20;4.38;;;3.17;;
6463;SDS011;3265;42.694;23.282;2022-10-16T12:17:50;5.72;;;3.28;;
6463;SDS011;3265;42.694;23.282;2022-10-16T12:20:27;5.90;;;3.88;;
6463;SDS011;3265;42.694;23.282;2022-10-16T12:22:58;6.43;;;4.18;;
6463;SDS011;3265;42.694;23.282;2022-10-16T12:25:28;6.57;;;4.50;;
6463;SDS011;3265;42.694;23.282;2022-10-16T12:27:59;7.10;;;4.10;;
6463;SDS011;3265;42.694;23.282;2022-10-16T12:30:28;7.53;;;3.63;;
6463;SDS011;3265;42.694;23.282;2022-10-16T12:32:57;3.70;;;3.30;;
6463;SDS011;3265;42.694;23.282;2022-10-16T12:35:27;5.72;;;3.50;;
6463;SDS011;3265;42.694;23.282;2022-10-16T12:38:04;4.13;;;3.22;;
6463;SDS011;3265;42.694;23.282;2022-10-16T12:40:35;4.28;;;3.08;;
6463;SDS011;3265;42.694;23.282;2022-10-16T12:43:24;5.47;;;3.50;;
6463;SDS011;3265;42.694;23.282;2022-10-16T12:46:00;5.05;;;3.60;;
6463;SDS011;3265;42.694;23.282;2022-10-16T12:48:28;3.50;;;3.08;;
6463;SDS011;3265;42.694;23.282;2022-10-16T12:50:55;5.90;;;2.92;;
6463;SDS011;3265;42.694;23.282;2022-10-16T12:53:23;5.78;;;2.97;;
6463;SDS011;3265;42.694;23.282;2022-10-16T12:55:58;5.65;;;3.00;;
6463;SDS011;3265;42.694;23.282;2022-10-16T12:58:37;4.70;;;3.08;;
6463;SDS011;3265;42.694;23.282;2022-10-16T13:01:18;6.55;;;3.38;;
6463;SDS011;3265;42.694;23.282;2022-10-16T13:04:02;5.45;;;3.35;;
6463;SDS011;3265;42.694;23.282;2022-10-16T13:06:43;4.07;;;3.20;;
6463;SDS011;3265;42.694;23.282;2022-10-16T13:09:20;3.08;;;2.80;;
6463;SDS011;3265;42.694;23.282;2022-10-16T13:15:06;3.72;;;3.10;;
6463;SDS011;3265;42.694;23.282;2022-10-16T13:17:45;3.35;;;2.78;;
6463;SDS011;3265;42.694;23.282;2022-10-16T13:20:20;3.00;;;2.70;;
6463;SDS011;3265;42.694;23.282;2022-10-16T13:22:56;3.13;;;2.67;;
6463;SDS011;3265;42.694;23.282;2022-10-16T13:25:33;4.05;;;3.15;;
6463;SDS011;3265;42.694;23.282;2022-10-16T13:28:11;4.80;;;3.05;;
6463;SDS011;3265;42.694;23.282;2022-10-16T13:30:40;4.30;;;2.80;;
6463;SDS011;3265;42.694;23.282;2022-10-16T13:33:12;3.88;;;2.83;;
6463;SDS011;3265;42.694;23.282;2022-10-16T13:35:46;6.03;;;3.30;;
6463;SDS011;3265;42.694;23.282;2022-10-16T13:38:15;6.05;;;3.08;;
6463;SDS011;3265;42.694;23.282;2022-10-16T13:40:50;4.45;;;2.80;;
6463;SDS011;3265;42.694;23.282;2022-10-16T13:43:21;3.42;;;3.00;;
6463;SDS011;3265;42.694;23.282;2022-10-16T13:45:54;6.28;;;3.20;;
6463;SDS011;3265;42.694;23.282;2022-10-16T13:48:22;5.53;;;3.00;;
6463;SDS011;3265;42.694;23.282;2022-10-16T13:50:59;4.65;;;3.33;;
6463;SDS011;3265;42.694;23.282;2022-10-16T13:53:29;5.07;;;3.53;;
6463;SDS011;3265;42.694;23.282;2022-10-16T13:55:57;4.55;;;3.15;;
6463;SDS011;3265;42.694;23.282;2022-10-16T13:58:27;5.10;;;3.05;;
6463;SDS011;3265;42.694;23.282;2022-10-16T14:00:56;8.80;;;3.40;;
6463;SDS011;3265;42.694;23.282;2022-10-16T14:03:24;5.72;;;2.58;;
6463;SDS011;3265;42.694;23.282;2022-10-16T14:05:52;4.07;;;2.60;;
6463;SDS011;3265;42.694;23.282;2022-10-16T14:08:21;3.63;;;2.83;;
6463;SDS011;3265;42.694;23.282;2022-10-16T14:10:50;6.93;;;3.33;;
6463;SDS011;3265;42.694;23.282;2022-10-16T14:13:20;5.85;;;3.22;;
6463;SDS011;3265;42.694;23.282;2022-10-16T14:15:54;4.45;;;3.03;;
6463;SDS011;3265;42.694;23.282;2022-10-16T14:18:24;4.32;;;3.28;;
6463;SDS011;3265;42.694;23.282;2022-10-16T14:20:53;7.00;;;3.10;;
6463;SDS011;3265;42.694;23.282;2022-10-16T14:23:22;6.43;;;3.20;;
6463;SDS011;3265;42.694;23.282;2022-10-16T14:25:54;3.60;;;2.75;;
6463;SDS011;3265;42.694;23.282;2022-10-16T14:28:32;5.82;;;3.58;;
6463;SDS011;3265;42.694;23.282;2022-10-16T14:31:01;5.55;;;3.30;;
6463;SDS011;3265;42.694;23.282;2022-10-16T14:33:31;5.45;;;3.50;;
6463;SDS011;3265;42.694;23.282;2022-10-16T14:36:01;9.52;;;3.75;;
6463;SDS011;3265;42.694;23.282;2022-10-16T14:38:31;5.93;;;3.33;;
6463;SDS011;3265;42.694;23.282;2022-10-16T14:40:59;5.88;;;3.17;;
6463;SDS011;3265;42.694;23.282;2022-10-16T14:43:29;6.30;;;3.40;;
6463;SDS011;3265;42.694;23.282;2022-10-16T14:46:01;5.22;;;3.50;;
6463;SDS011;3265;42.694;23.282;2022-10-16T14:48:30;6.88;;;3.28;;
6463;SDS011;3265;42.694;23.282;2022-10-16T14:50:57;8.15;;;3.80;;
6463;SDS011;3265;42.694;23.282;2022-10-16T14:53:24;7.28;;;3.70;;
6463;SDS011;3265;42.694;23.282;2022-10-16T14:55:50;4.53;;;3.42;;
6463;SDS011;3265;42.694;23.282;2022-10-16T14:58:18;7.47;;;4.05;;
6463;SDS011;3265;42.694;23.282;2022-10-16T15:00:47;6.03;;;3.80;;
6463;SDS011;3265;42.694;23.282;2022-10-16T15:03:15;7.32;;;3.60;;
6463;SDS011;3265;42.694;23.282;2022-10-16T15:05:42;5.57;;;3.50;;
6463;SDS011;3265;42.694;23.282;2022-10-16T15:08:09;4.95;;;3.70;;
6463;SDS011;3265;42.694;23.282;2022-10-16T15:10:38;6.55;;;3.75;;